createdAt,value
2018-10-09T00:02:12.025Z,82.39
2018-10-09T00:04:39.688Z,77.45
2018-10-09T00:07:07.499Z,82.83
2018-10-09T00:09:35.112Z,82.06
2018-10-09T00:12:02.755Z,81.28
2018-10-09T00:14:30.437Z,81.80
2018-10-09T00:16:58.164Z,81.16
2018-10-09T00:19:25.763Z,77.69
2018-10-09T00:21:53.422Z,81.29
2018-10-09T00:24:21.112Z,83.31
2018-10-09T00:26:48.844Z,80.42
2018-10-09T00:29:16.508Z,83.76
2018-10-09T00:31:44.168Z,83.89
2018-10-09T00:34:11.818Z,84.30
2018-10-09T00:36:39.503Z,84.57
2018-10-09T00:39:08.536Z,83.72
2018-10-09T00:41:36.217Z,83.42
2018-10-09T00:44:03.959Z,83.42
2018-10-09T00:46:31.676Z,80.99
2018-10-09T00:48:59.424Z,81.09
2018-10-09T00:51:27.400Z,81.31
2018-10-09T00:53:55.125Z,77.96
2018-10-09T00:56:22.787Z,79.86
2018-10-09T00:58:50.500Z,82.54
2018-10-09T01:01:18.204Z,81.63
2018-10-09T01:03:45.892Z,81.49
2018-10-09T01:06:13.584Z,79.82
2018-10-09T01:08:41.308Z,82.27
2018-10-09T01:11:09.457Z,83.06
2018-10-09T01:13:37.291Z,83.45
2018-10-09T01:16:04.997Z,80.92
2018-10-09T01:18:32.664Z,80.83
2018-10-09T01:21:00.288Z,79.58
2018-10-09T01:23:27.936Z,80.59
2018-10-09T01:25:55.655Z,80.95
2018-10-09T01:28:23.340Z,82.43
2018-10-09T01:30:51.050Z,82.11
2018-10-09T01:36:15.815Z,79.56
2018-10-09T01:38:43.531Z,80.12
2018-10-09T01:41:13.442Z,79.68
2018-10-09T01:43:41.176Z,80.24
2018-10-09T01:46:08.891Z,78.51
2018-10-09T01:48:36.609Z,79.07
2018-10-09T01:51:04.376Z,78.25
2018-10-09T01:53:32.032Z,79.56
2018-10-09T01:55:59.821Z,78.77
2018-10-09T01:58:27.552Z,79.45
2018-10-09T02:00:55.236Z,78.43
2018-10-09T02:03:22.954Z,81.65
2018-10-09T02:05:50.648Z,81.89
2018-10-09T02:08:18.303Z,82.29
2018-10-09T02:10:46.072Z,80.63
2018-10-09T02:13:13.792Z,81.03
2018-10-09T02:15:41.488Z,81.97
2018-10-09T02:18:09.264Z,79.31
2018-10-09T02:20:36.948Z,78.85
2018-10-09T02:23:04.640Z,78.56
2018-10-09T02:25:32.336Z,78.49
2018-10-09T02:28:00.028Z,78.17
2018-10-09T02:30:27.685Z,78.37
2018-10-09T02:32:55.444Z,78.42
2018-10-09T02:35:23.205Z,78.16
2018-10-09T02:37:50.884Z,78.63
2018-10-09T02:40:18.674Z,78.64
2018-10-09T02:42:46.345Z,78.32
2018-10-09T02:45:14.020Z,78.28
2018-10-09T02:47:41.804Z,78.23
2018-10-09T02:50:09.493Z,77.93
2018-10-09T02:52:37.104Z,78.05
2018-10-09T02:55:04.879Z,78.16
2018-10-09T02:57:32.769Z,78.46
2018-10-09T03:00:00.512Z,78.54
2018-10-09T03:02:28.213Z,80.66
2018-10-09T03:04:55.896Z,80.41
2018-10-09T03:07:23.561Z,80.61
2018-10-09T03:09:51.274Z,79.56
2018-10-09T03:12:18.987Z,79.28
2018-10-09T03:14:46.644Z,78.49
2018-10-09T03:17:14.388Z,78.36
2018-10-09T03:19:42.079Z,78.20
2018-10-09T03:22:09.812Z,78.31
2018-10-09T03:24:37.579Z,78.00
2018-10-09T03:27:05.324Z,77.44
2018-10-09T03:29:33.076Z,78.18
2018-10-09T03:32:00.788Z,78.47
2018-10-09T03:34:28.460Z,78.40
2018-10-09T03:36:56.156Z,77.52
2018-10-09T03:39:23.841Z,77.93
2018-10-09T03:41:51.689Z,78.31
2018-10-09T03:44:19.480Z,78.69
2018-10-09T03:46:47.265Z,78.52
2018-10-09T03:49:14.892Z,79.53
2018-10-09T03:51:42.628Z,80.84
2018-10-09T03:54:10.345Z,79.33
2018-10-09T03:56:38.130Z,79.18
2018-10-09T03:59:05.812Z,78.70
2018-10-09T04:01:33.547Z,78.35
2018-10-09T04:04:01.270Z,78.61
2018-10-09T04:06:28.937Z,80.56
2018-10-09T04:08:56.642Z,79.91
2018-10-09T04:11:24.446Z,78.70
2018-10-09T04:13:52.141Z,78.50
2018-10-09T04:16:19.936Z,78.58
2018-10-09T04:18:47.668Z,79.92
2018-10-09T04:21:15.348Z,79.62
2018-10-09T04:23:43.144Z,80.62
2018-10-09T04:26:10.877Z,78.37
2018-10-09T04:28:38.728Z,80.03
2018-10-09T04:31:06.459Z,80.46
2018-10-09T04:33:34.224Z,79.28
2018-10-09T04:36:01.955Z,78.83
2018-10-09T04:38:29.762Z,79.36
2018-10-09T04:40:57.450Z,79.52
2018-10-09T04:43:25.192Z,79.48
2018-10-09T04:45:52.899Z,78.93
2018-10-09T04:48:20.600Z,79.26
2018-10-09T04:50:48.277Z,80.90
2018-10-09T04:53:15.961Z,79.58
2018-10-09T04:55:43.641Z,79.71
2018-10-09T04:58:12.230Z,81.43
2018-10-09T05:00:40.025Z,80.37
2018-10-09T05:03:07.752Z,80.34
2018-10-09T05:05:35.492Z,79.72
2018-10-09T05:08:03.211Z,82.00
2018-10-09T05:10:31.016Z,83.25
2018-10-09T05:12:58.977Z,85.33
2018-10-09T05:15:26.733Z,86.10
2018-10-09T05:17:54.751Z,86.36
2018-10-09T05:20:22.569Z,83.70
2018-10-09T05:22:50.462Z,81.80
2018-10-09T05:25:18.449Z,84.75
2018-10-09T05:27:46.357Z,83.42
2018-10-09T05:30:14.034Z,82.26
2018-10-09T05:32:41.981Z,83.14
2018-10-09T05:35:10.088Z,82.92
2018-10-09T05:37:38.075Z,84.37
2018-10-09T05:40:05.944Z,86.27
2018-10-09T05:42:33.829Z,83.85
2018-10-09T05:45:01.548Z,83.02
2018-10-09T05:47:29.735Z,81.83
2018-10-09T05:49:57.446Z,82.55
2018-10-09T05:52:25.656Z,81.40
2018-10-09T05:54:53.517Z,81.37
2018-10-09T05:57:21.524Z,81.58
2018-10-09T05:59:49.352Z,81.06
2018-10-09T06:02:17.400Z,82.70
2018-10-09T06:04:45.062Z,81.13
2018-10-09T06:07:12.988Z,80.63
2018-10-09T06:09:40.940Z,80.79
2018-10-09T06:12:08.931Z,80.40
2018-10-09T06:14:36.650Z,82.44
2018-10-09T06:17:04.360Z,82.77
2018-10-09T06:19:32.100Z,83.33
2018-10-09T06:21:59.859Z,81.80
2018-10-09T06:24:27.627Z,82.98
2018-10-09T06:26:55.351Z,82.86
2018-10-09T06:29:23.148Z,85.64
2018-10-09T06:31:50.858Z,85.45
2018-10-09T06:34:18.540Z,85.77
2018-10-09T06:36:46.336Z,85.53
2018-10-09T06:39:14.064Z,86.01
2018-10-09T06:41:44.229Z,85.53
2018-10-09T06:44:12.037Z,86.98
2018-10-09T06:46:39.685Z,86.08
2018-10-09T06:49:07.353Z,86.60
2018-10-09T06:51:35.133Z,86.83
2018-10-09T06:54:02.963Z,87.23
2018-10-09T06:56:30.540Z,85.91
2018-10-09T06:58:58.264Z,85.68
2018-10-09T07:01:25.974Z,86.61
2018-10-09T07:03:53.641Z,86.15
2018-10-09T07:06:21.446Z,86.21
2018-10-09T07:08:49.129Z,86.53
2018-10-09T07:11:16.945Z,86.51
2018-10-09T07:13:44.673Z,85.03
2018-10-09T07:16:12.332Z,85.46
2018-10-09T07:18:40.069Z,85.98
2018-10-09T07:21:07.807Z,85.94
2018-10-09T07:23:35.496Z,85.67
2018-10-09T07:26:03.155Z,86.72
2018-10-09T07:28:30.905Z,86.39
2018-10-09T07:30:58.610Z,86.30
2018-10-09T07:33:26.260Z,86.46
2018-10-09T07:35:53.937Z,86.72
2018-10-09T07:38:21.626Z,85.26
2018-10-09T07:40:49.290Z,85.87
2018-10-09T07:43:17.077Z,86.30
2018-10-09T07:45:44.740Z,85.97
2018-10-09T07:48:12.461Z,85.88
2018-10-09T07:50:40.249Z,85.39
2018-10-09T07:53:07.889Z,84.62
2018-10-09T07:55:35.649Z,83.12
2018-10-09T07:58:03.429Z,83.47
2018-10-09T08:00:31.173Z,82.87
2018-10-09T08:02:58.869Z,84.01
2018-10-09T08:05:26.561Z,85.25
2018-10-09T08:07:54.333Z,85.20
2018-10-09T08:10:22.082Z,84.83
2018-10-09T08:12:49.716Z,84.66
2018-10-09T08:15:17.476Z,83.82
2018-10-09T08:17:45.181Z,84.37
2018-10-09T08:20:12.937Z,84.14
2018-10-09T08:22:40.712Z,84.61
2018-10-09T08:25:08.340Z,83.62
2018-10-09T08:27:36.030Z,83.80
2018-10-09T08:30:03.845Z,83.66
2018-10-09T08:32:31.521Z,83.15
2018-10-09T08:34:59.213Z,82.46
2018-10-09T08:37:26.948Z,82.28
2018-10-09T08:39:54.598Z,82.49
2018-10-09T08:42:22.352Z,82.63
2018-10-09T08:44:50.081Z,81.76
2018-10-09T08:47:17.757Z,82.22
2018-10-09T08:49:50.053Z,81.35
2018-10-09T08:52:17.715Z,81.18
2018-10-09T08:54:45.436Z,80.66
2018-10-09T08:57:13.146Z,80.63
2018-10-09T08:59:40.813Z,80.01
2018-10-09T09:02:08.503Z,81.18
2018-10-09T09:04:36.195Z,80.23
2018-10-09T09:07:03.885Z,79.94
2018-10-09T09:09:31.634Z,80.19
2018-10-09T09:11:59.337Z,80.31
2018-10-09T09:14:27.085Z,79.32
2018-10-09T09:16:54.789Z,79.10
2018-10-09T09:19:22.575Z,79.07
2018-10-09T09:21:50.339Z,78.95
2018-10-09T09:24:17.977Z,78.97
2018-10-09T09:26:45.812Z,79.14
2018-10-09T09:29:13.348Z,79.33
2018-10-09T09:31:41.001Z,78.49
2018-10-09T09:34:08.761Z,78.00
2018-10-09T09:36:36.498Z,77.82
2018-10-09T09:39:06.419Z,77.97
2018-10-09T09:41:34.117Z,77.90
2018-10-09T09:44:01.901Z,77.85
2018-10-09T09:46:29.684Z,76.51
2018-10-09T09:48:57.377Z,76.98
2018-10-09T09:51:25.190Z,76.76
2018-10-09T09:53:52.846Z,76.40
2018-10-09T09:56:20.609Z,75.76
2018-10-09T09:58:48.511Z,76.23
2018-10-09T10:01:15.993Z,76.61
2018-10-09T10:03:43.803Z,75.27
2018-10-09T10:06:11.440Z,75.02
2018-10-09T10:08:39.129Z,74.19
2018-10-09T10:11:06.936Z,74.65
2018-10-09T10:13:34.669Z,74.15
2018-10-09T10:16:02.358Z,74.21
2018-10-09T10:18:30.105Z,72.31
2018-10-09T10:20:57.828Z,72.62
2018-10-09T10:23:25.541Z,72.71
2018-10-09T10:25:53.245Z,72.14
2018-10-09T10:28:21.054Z,71.59
2018-10-09T10:30:48.748Z,70.01
2018-10-09T10:33:16.424Z,71.93
2018-10-09T10:35:44.275Z,71.02
2018-10-09T10:38:11.832Z,71.14
2018-10-09T10:40:39.496Z,69.75
2018-10-09T10:43:07.234Z,67.73
2018-10-09T10:45:34.933Z,67.12
2018-10-09T10:48:02.594Z,67.65
2018-10-09T10:50:30.284Z,66.66
2018-10-09T10:52:58.058Z,65.73
2018-10-09T10:55:25.704Z,65.78
2018-10-09T10:57:53.436Z,66.52
2018-10-09T11:00:21.170Z,63.08
2018-10-09T11:02:48.940Z,62.71
2018-10-09T11:05:16.663Z,64.36
2018-10-09T11:07:44.407Z,62.10
2018-10-09T11:10:12.090Z,61.08
2018-10-09T11:12:39.917Z,61.36
2018-10-09T11:15:07.613Z,61.37
2018-10-09T11:17:35.254Z,60.28
2018-10-09T11:20:06.357Z,58.09
2018-10-09T11:22:34.057Z,59.61
2018-10-09T11:25:01.765Z,55.93
2018-10-09T11:27:29.645Z,57.57
2018-10-09T11:29:57.305Z,57.03
2018-10-09T11:32:25.282Z,57.03
2018-10-09T11:34:52.960Z,56.79
2018-10-09T11:37:20.666Z,56.31
2018-10-09T11:39:48.371Z,55.53
2018-10-09T11:42:16.033Z,57.40
2018-10-09T11:44:43.725Z,57.48
2018-10-09T11:47:11.388Z,57.92
2018-10-09T11:49:39.053Z,56.94
2018-10-09T11:52:06.838Z,54.80
2018-10-09T11:54:34.638Z,58.37
2018-10-09T11:57:02.276Z,58.01
2018-10-09T11:59:29.953Z,55.35
2018-10-09T12:01:57.644Z,57.74
2018-10-09T12:04:25.368Z,54.77
2018-10-09T12:06:53.048Z,55.68
2018-10-09T12:09:20.773Z,54.97
2018-10-09T12:11:48.592Z,55.99
2018-10-09T12:14:16.320Z,56.85
2018-10-09T12:16:44.027Z,55.08
2018-10-09T12:19:11.708Z,57.58
2018-10-09T12:21:39.465Z,56.86
2018-10-09T12:24:07.212Z,57.70
2018-10-09T12:26:38.757Z,54.20
2018-10-09T12:29:06.569Z,55.80
2018-10-09T12:31:34.278Z,55.69
2018-10-09T12:34:01.968Z,56.55
2018-10-09T12:36:29.697Z,55.32
2018-10-09T12:38:57.391Z,56.53
2018-10-09T12:41:25.109Z,55.94
2018-10-09T12:43:52.903Z,55.82
2018-10-09T12:46:20.607Z,55.65
2018-10-09T12:48:48.326Z,56.71
2018-10-09T12:51:16.111Z,55.34
2018-10-09T12:53:43.835Z,56.93
2018-10-09T12:56:11.722Z,57.19
2018-10-09T12:58:39.536Z,56.12
2018-10-09T13:01:07.232Z,56.82
2018-10-09T13:03:35.013Z,56.59
2018-10-09T13:06:02.724Z,56.87
2018-10-09T13:08:30.368Z,56.54
2018-10-09T13:11:02.353Z,56.34
2018-10-09T13:13:30.061Z,56.12
2018-10-09T13:15:57.781Z,57.05
2018-10-09T13:18:25.473Z,56.93
2018-10-09T13:20:53.368Z,57.80
2018-10-09T13:23:21.009Z,57.48
2018-10-09T13:25:48.698Z,58.52
2018-10-09T13:28:16.405Z,58.29
2018-10-09T13:30:44.126Z,58.79
2018-10-09T13:33:11.832Z,57.49
2018-10-09T13:35:39.540Z,57.83
2018-10-09T13:38:07.277Z,58.04
2018-10-09T13:40:34.870Z,56.04
2018-10-09T13:43:02.621Z,57.79
2018-10-09T13:45:30.376Z,56.44
2018-10-09T13:47:58.045Z,56.79
2018-10-09T13:50:25.791Z,57.88
2018-10-09T13:52:53.461Z,57.73
2018-10-09T13:55:21.206Z,56.66
2018-10-09T13:57:48.892Z,57.36
2018-10-09T14:00:16.622Z,56.95
2018-10-09T14:02:45.307Z,56.72
2018-10-09T14:05:13.372Z,56.60
2018-10-09T14:07:41.169Z,56.64
2018-10-09T14:10:08.914Z,56.95
2018-10-09T14:12:36.632Z,55.75
2018-10-09T14:15:04.653Z,56.28
2018-10-09T14:17:32.316Z,57.05
2018-10-09T14:20:00.043Z,55.48
2018-10-09T14:22:27.768Z,55.86
2018-10-09T14:24:55.477Z,57.26
2018-10-09T14:27:23.245Z,56.91
2018-10-09T14:29:51.447Z,56.99
2018-10-09T14:32:19.997Z,55.26
2018-10-09T14:34:48.149Z,55.29
2018-10-09T14:37:16.439Z,55.25
2018-10-09T14:39:44.131Z,55.25
2018-10-09T14:42:13.608Z,55.71
2018-10-09T14:44:46.774Z,56.84
2018-10-09T14:47:14.632Z,57.09
2018-10-09T14:49:42.333Z,55.95
2018-10-09T14:52:10.000Z,56.01
2018-10-09T14:54:38.856Z,56.56
2018-10-09T14:57:06.958Z,56.49
2018-10-09T14:59:35.085Z,56.38
2018-10-09T15:02:02.809Z,56.64
2018-10-09T15:04:30.510Z,56.60
2018-10-09T15:07:07.429Z,56.91
2018-10-09T15:09:37.429Z,55.66
2018-10-09T15:12:05.549Z,56.04
2018-10-09T15:14:41.351Z,55.99
2018-10-09T15:17:16.474Z,55.63
2018-10-09T15:19:44.256Z,56.99
2018-10-09T15:22:11.936Z,56.82
2018-10-09T15:24:39.677Z,57.29
2018-10-09T15:27:07.417Z,56.87
2018-10-09T15:29:35.105Z,56.98
2018-10-09T15:32:02.852Z,55.91
2018-10-09T15:34:30.565Z,57.57
2018-10-09T15:36:58.282Z,57.20
2018-10-09T15:39:26.062Z,57.73
2018-10-09T15:41:53.777Z,56.92
2018-10-09T15:44:21.483Z,57.13
2018-10-09T15:46:49.169Z,56.83
2018-10-09T15:49:16.992Z,57.76
2018-10-09T15:51:44.825Z,58.96
2018-10-09T15:54:12.603Z,57.58
2018-10-09T15:56:40.399Z,58.20
2018-10-09T15:59:08.121Z,57.96
2018-10-09T16:01:36.068Z,58.54
2018-10-09T16:04:03.785Z,57.94
2018-10-09T16:06:31.501Z,57.98
2018-10-09T16:08:59.632Z,58.32
2018-10-09T16:11:27.604Z,58.59
2018-10-09T16:13:56.098Z,58.70
2018-10-09T16:19:21.093Z,58.67
2018-10-09T16:21:48.845Z,59.09
2018-10-09T16:24:16.789Z,59.24
2018-10-09T16:26:45.881Z,59.50
2018-10-09T16:29:13.620Z,59.81
2018-10-09T16:31:41.261Z,60.35
2018-10-09T16:34:09.621Z,60.78
2018-10-09T16:36:38.672Z,60.81
2018-10-09T16:39:10.475Z,61.21
2018-10-09T16:41:39.525Z,61.69
2018-10-09T16:44:08.286Z,61.81
2018-10-09T16:46:36.904Z,61.88
2018-10-09T16:49:06.281Z,62.67
2018-10-09T16:51:34.600Z,62.79
2018-10-09T16:54:02.453Z,62.94
2018-10-09T16:56:30.102Z,63.66
2018-10-09T16:58:57.828Z,64.57
2018-10-09T17:01:26.429Z,64.99
2018-10-09T17:03:54.117Z,64.52
2018-10-09T17:06:21.989Z,64.29
2018-10-09T17:08:50.047Z,64.85
2018-10-09T17:11:18.552Z,64.97
2018-10-09T17:13:46.293Z,66.14
2018-10-09T17:16:14.709Z,66.32
2018-10-09T17:18:43.501Z,67.41
2018-10-09T17:21:11.231Z,67.20
2018-10-09T17:23:39.010Z,67.84
2018-10-09T17:26:06.926Z,67.85
2018-10-09T17:28:34.967Z,68.30
2018-10-09T17:31:02.680Z,68.58
2018-10-09T17:33:31.482Z,69.39
2018-10-09T17:35:59.113Z,69.12
2018-10-09T17:38:26.785Z,68.96
2018-10-09T17:40:54.478Z,70.49
2018-10-09T17:43:22.269Z,69.94
2018-10-09T17:45:49.961Z,70.07
2018-10-09T17:48:17.660Z,70.09
2018-10-09T17:50:45.499Z,70.94
2018-10-09T17:53:13.947Z,72.04
2018-10-09T17:55:41.638Z,71.68
2018-10-09T17:58:11.673Z,71.15
2018-10-09T18:00:39.354Z,71.46
2018-10-09T18:03:07.375Z,71.25
2018-10-09T18:05:35.245Z,72.81
2018-10-09T18:08:03.090Z,72.85
2018-10-09T18:10:30.787Z,72.93
2018-10-09T18:12:58.556Z,72.82
2018-10-09T18:15:26.477Z,73.20
2018-10-09T18:17:54.256Z,72.33
2018-10-09T18:20:22.249Z,73.12
2018-10-09T18:22:50.129Z,73.19
2018-10-09T18:25:17.840Z,73.00
2018-10-09T18:27:45.512Z,74.12
2018-10-09T18:30:13.466Z,73.49
2018-10-09T18:32:42.131Z,74.18
2018-10-09T18:35:09.934Z,73.59
2018-10-09T18:37:37.638Z,73.97
2018-10-09T18:40:05.633Z,74.90
2018-10-09T18:42:33.841Z,74.67
2018-10-09T18:45:01.691Z,74.69
2018-10-09T18:47:35.465Z,74.77
2018-10-09T18:50:03.478Z,75.66
2018-10-09T18:52:31.600Z,75.79
2018-10-09T18:54:59.372Z,75.25
2018-10-09T18:57:27.192Z,76.30
2018-10-09T18:59:54.860Z,74.97
2018-10-09T19:02:22.599Z,75.25
2018-10-09T19:04:50.382Z,75.18
2018-10-09T19:07:18.030Z,75.67
2018-10-09T19:09:45.840Z,75.71
2018-10-09T19:12:13.654Z,76.55
2018-10-09T19:14:41.422Z,76.52
2018-10-09T19:17:09.190Z,76.04
2018-10-09T19:19:36.916Z,75.46
2018-10-09T19:22:04.653Z,75.79
2018-10-09T19:24:34.013Z,76.94
2018-10-09T19:27:01.840Z,76.47
2018-10-09T19:29:30.221Z,77.76
2018-10-09T19:31:58.007Z,77.05
2018-10-09T19:34:25.888Z,77.55
2018-10-09T19:36:53.869Z,77.58
2018-10-09T19:39:21.632Z,78.16
2018-10-09T19:41:49.300Z,76.32
2018-10-09T19:44:16.926Z,76.43
2018-10-09T19:46:44.906Z,76.63
2018-10-09T19:49:12.660Z,76.22
2018-10-09T19:51:40.325Z,76.22
2018-10-09T19:54:07.985Z,75.00
2018-10-09T19:56:35.653Z,75.07
2018-10-09T19:59:03.513Z,75.55
2018-10-09T20:01:31.685Z,75.08
2018-10-09T20:03:59.388Z,74.42
2018-10-09T20:06:27.801Z,73.52
2018-10-09T20:08:55.557Z,73.73
2018-10-09T20:11:23.321Z,73.98
2018-10-09T20:13:50.949Z,73.71
2018-10-09T20:16:18.825Z,73.94
2018-10-09T20:18:47.321Z,74.25
2018-10-09T20:21:15.003Z,74.15
2018-10-09T20:23:42.734Z,74.58
2018-10-09T20:26:17.199Z,75.26
2018-10-09T20:28:44.941Z,74.29
2018-10-09T20:31:13.149Z,73.57
2018-10-09T20:33:40.841Z,74.74
2018-10-09T20:36:08.644Z,74.44
2018-10-09T20:38:36.350Z,74.98
2018-10-09T20:41:04.130Z,76.82
2018-10-09T20:43:31.969Z,75.17
2018-10-09T20:45:59.577Z,75.61
2018-10-09T20:48:27.345Z,74.49
2018-10-09T20:50:55.039Z,74.56
2018-10-09T20:53:24.120Z,74.27
2018-10-09T20:55:52.117Z,74.33
2018-10-09T20:58:19.994Z,75.11
2018-10-09T21:00:47.737Z,74.04
2018-10-09T21:03:15.554Z,73.89
2018-10-09T21:05:43.351Z,73.06
2018-10-09T21:08:10.945Z,74.00
2018-10-09T21:10:38.842Z,74.45
2018-10-09T21:13:06.607Z,73.52
2018-10-09T21:15:34.426Z,73.91
2018-10-09T21:18:02.179Z,73.44
2018-10-09T21:20:29.909Z,73.33
2018-10-09T21:22:57.744Z,72.96
2018-10-09T21:25:27.372Z,72.87
2018-10-09T21:27:56.922Z,72.96
2018-10-09T21:30:24.645Z,72.94
2018-10-09T21:33:00.170Z,72.85
2018-10-09T21:35:35.239Z,73.27
2018-10-09T21:38:03.497Z,72.74
2018-10-09T21:40:31.489Z,72.96
2018-10-09T21:43:05.115Z,72.69
2018-10-09T21:45:35.239Z,72.64
2018-10-09T21:48:07.338Z,72.90
2018-10-09T21:50:35.159Z,72.46
2018-10-09T21:53:02.849Z,73.66
2018-10-09T21:55:34.036Z,73.47
2018-10-09T21:58:01.813Z,73.35
2018-10-09T22:00:29.605Z,74.70
2018-10-09T22:02:57.337Z,74.16
2018-10-09T22:05:25.100Z,75.05
2018-10-09T22:07:52.793Z,73.54
2018-10-09T22:10:20.497Z,74.04
2018-10-09T22:12:48.229Z,74.36
2018-10-09T22:15:15.934Z,77.79
2018-10-09T22:17:43.626Z,76.75
2018-10-09T22:20:11.317Z,75.80
2018-10-09T22:22:39.017Z,75.89
2018-10-09T22:25:06.818Z,74.65
2018-10-09T22:27:34.768Z,74.75
2018-10-09T22:30:02.525Z,74.57
2018-10-09T22:32:30.293Z,74.39
2018-10-09T22:34:57.966Z,75.06
2018-10-09T22:37:25.646Z,75.48
2018-10-09T22:39:53.329Z,76.79
2018-10-09T22:42:21.054Z,75.15
2018-10-09T22:44:48.708Z,74.82
2018-10-09T22:47:16.445Z,74.82
2018-10-09T22:49:44.158Z,74.76
2018-10-09T22:52:11.903Z,74.64
2018-10-09T22:54:39.553Z,74.99
2018-10-09T22:57:07.278Z,74.81
2018-10-09T22:59:34.969Z,75.45
2018-10-09T23:02:02.913Z,77.53
2018-10-09T23:04:30.636Z,78.22
2018-10-09T23:06:58.356Z,77.34
2018-10-09T23:09:26.128Z,75.69
2018-10-09T23:11:53.904Z,76.82
2018-10-09T23:14:21.613Z,77.89
2018-10-09T23:16:49.322Z,77.19
2018-10-09T23:19:17.050Z,77.17
2018-10-09T23:21:44.766Z,81.07
2018-10-09T23:24:12.485Z,79.88
2018-10-09T23:26:40.175Z,80.63
2018-10-09T23:29:07.882Z,79.74
2018-10-09T23:31:35.649Z,80.09
2018-10-09T23:34:03.437Z,79.58
2018-10-09T23:36:33.333Z,79.37
2018-10-09T23:39:01.046Z,77.22
2018-10-09T23:41:28.749Z,79.68
2018-10-09T23:43:56.397Z,80.21
2018-10-09T23:46:24.142Z,79.88
2018-10-09T23:48:51.822Z,79.69
2018-10-09T23:51:19.510Z,78.60
2018-10-09T23:53:47.216Z,80.57
2018-10-09T23:56:14.989Z,81.56
2018-10-09T23:58:42.683Z,79.94
